Time;durP1;ratioP1;P1;durP2;ratioP2;P2;SDS_P1;SDS_P2;PMS_P1;PMS_P2;Temp;Humidity;BMP_temperature;BMP_pressure;BME280_temperature;BME280_humidity;BME280_pressure;Samples;Min_cycle;Max_cycle;Signal;HPM_P1;HPM_P2
2022/05/02 00:00:15;;;;;;;0.40;0.40;;;3.60;99.90;;;;;;5029451;28;20403;-73
2022/05/02 00:02:41;;;;;;;0.40;0.40;;;3.60;99.90;;;;;;5008796;28;20044;-73
2022/05/02 00:05:07;;;;;;;0.47;0.47;;;3.50;99.90;;;;;;5029230;28;20083;-73
2022/05/02 00:07:33;;;;;;;0.50;0.50;;;3.50;99.90;;;;;;5009549;28;20135;-73
2022/05/02 00:09:59;;;;;;;0.43;0.43;;;3.40;99.90;;;;;;5029395;28;20180;-73
2022/05/02 00:12:25;;;;;;;0.43;0.43;;;3.50;99.90;;;;;;5026814;28;20036;-73
2022/05/02 00:14:51;;;;;;;0.50;0.50;;;3.40;99.90;;;;;;5012619;28;20116;-73
2022/05/02 00:17:17;;;;;;;0.60;0.60;;;3.40;99.90;;;;;;5016789;28;20672;-73
2022/05/02 00:19:42;;;;;;;0.50;0.50;;;3.40;99.90;;;;;;5028743;28;20059;-73
2022/05/02 00:22:08;;;;;;;0.40;0.40;;;3.40;99.90;;;;;;5013723;28;20071;-73
2022/05/02 00:24:33;;;;;;;0.40;0.40;;;3.30;99.90;;;;;;5015421;28;20037;-73
2022/05/02 00:26:59;;;;;;;0.60;0.60;;;3.30;99.90;;;;;;5044769;28;20037;-73
2022/05/02 00:29:25;;;;;;;0.50;0.50;;;3.30;99.90;;;;;;5016540;28;20449;-73
2022/05/02 00:31:51;;;;;;;0.40;0.40;;;3.30;99.90;;;;;;5015156;28;20049;-73
2022/05/02 00:34:16;;;;;;;0.50;0.50;;;3.30;99.90;;;;;;5015148;28;20489;-73
2022/05/02 00:36:42;;;;;;;0.50;0.50;;;3.30;99.90;;;;;;5003220;28;20033;-73
2022/05/02 00:39:08;;;;;;;0.38;0.38;;;3.20;99.90;;;;;;5027080;28;20042;-73
2022/05/02 00:41:34;;;;;;;0.63;0.63;;;3.20;99.90;;;;;;5012054;28;21541;-73
2022/05/02 00:44:00;;;;;;;0.40;0.40;;;3.20;99.90;;;;;;5011511;28;20575;-73
2022/05/02 00:46:26;;;;;;;0.50;0.50;;;3.20;99.90;;;;;;5027625;28;20120;-73
2022/05/02 00:48:53;;;;;;;0.40;0.40;;;3.20;99.90;;;;;;5010884;28;20044;-73
2022/05/02 00:51:20;;;;;;;0.40;0.40;;;3.20;99.90;;;;;;5007475;28;20056;-73
2022/05/02 00:53:48;;;;;;;0.50;0.50;;;3.20;99.90;;;;;;5012671;28;20130;-73
2022/05/02 00:56:16;;;;;;;0.40;0.40;;;3.20;99.90;;;;;;5027455;28;20033;-73
2022/05/02 00:58:42;;;;;;;0.30;0.30;;;3.30;99.90;;;;;;5028426;28;20292;-73
2022/05/02 01:01:08;;;;;;;0.50;0.50;;;3.30;99.90;;;;;;5012019;28;20111;-73
2022/05/02 01:03:34;;;;;;;0.40;0.40;;;3.30;99.90;;;;;;5015430;28;20052;-73
2022/05/02 01:08:45;;;;;;;0.50;0.50;;;3.20;99.90;;;;;;5030284;28;20124;-73
2022/05/02 01:11:11;;;;;;;0.50;0.50;;;3.20;99.90;;;;;;5011401;28;20581;-73
2022/05/02 01:13:46;;;;;;;0.40;0.40;;;3.10;99.90;;;;;;5008301;28;20513;-73
2022/05/02 01:16:28;;;;;;;0.40;0.40;;;3.20;99.90;;;;;;5025982;28;20033;-73
2022/05/02 01:18:56;;;;;;;0.40;0.40;;;3.20;99.90;;;;;;5026226;28;20044;-73
2022/05/02 01:21:25;;;;;;;0.43;0.43;;;3.20;99.90;;;;;;5009347;28;20555;-71
2022/05/02 01:23:57;;;;;;;0.50;0.50;;;3.20;99.90;;;;;;5026902;28;20396;-72
2022/05/02 01:26:23;;;;;;;0.40;0.40;;;3.20;99.90;;;;;;5027788;28;20064;-72
2022/05/02 01:28:59;;;;;;;0.55;0.55;;;3.20;99.90;;;;;;5028691;28;20501;-72
2022/05/02 01:31:25;;;;;;;0.40;0.40;;;3.10;99.90;;;;;;5000649;28;20444;-72
2022/05/02 01:33:52;;;;;;;0.50;0.50;;;3.10;99.90;;;;;;5040091;28;20124;-72
2022/05/02 01:36:18;;;;;;;4.88;1.48;;;3.20;99.90;;;;;;5011874;28;20050;-74
2022/05/02 01:38:44;;;;;;;0.40;0.40;;;3.10;99.90;;;;;;5028111;28;20514;-74
2022/05/02 01:41:10;;;;;;;0.40;0.40;;;3.10;99.90;;;;;;5011470;28;20148;-74
2022/05/02 01:43:37;;;;;;;0.60;0.60;;;3.10;99.90;;;;;;5029756;28;20123;-74
2022/05/02 01:46:06;;;;;;;0.43;0.43;;;3.10;99.90;;;;;;5023168;28;20420;-74
2022/05/02 01:48:31;;;;;;;0.47;0.47;;;3.00;99.90;;;;;;5039492;28;20403;-74
2022/05/02 01:50:58;;;;;;;0.85;0.85;;;3.00;99.90;;;;;;5024341;28;20061;-75
2022/05/02 01:53:24;;;;;;;0.68;0.68;;;3.00;99.90;;;;;;5013969;28;20413;-74
2022/05/02 01:55:50;;;;;;;0.70;0.70;;;2.90;99.90;;;;;;5023767;28;20036;-74
2022/05/02 01:58:16;;;;;;;0.70;0.70;;;2.90;99.90;;;;;;5039009;28;20059;-74
2022/05/02 02:00:42;;;;;;;0.50;0.50;;;2.90;99.90;;;;;;5016419;28;20760;-74
2022/05/02 02:03:08;;;;;;;0.40;0.40;;;2.90;99.90;;;;;;5030068;28;20040;-72
2022/05/02 02:05:49;;;;;;;0.40;0.40;;;2.90;99.90;;;;;;5017814;28;20499;-72
2022/05/02 02:08:21;;;;;;;0.50;0.50;;;2.90;99.90;;;;;;5008442;28;20489;-74
2022/05/02 02:10:47;;;;;;;0.40;0.40;;;3.00;99.90;;;;;;5029292;28;20049;-74
2022/05/02 02:13:14;;;;;;;0.50;0.50;;;3.00;99.90;;;;;;5049431;28;20037;-74
2022/05/02 02:15:39;;;;;;;0.50;0.50;;;3.00;99.90;;;;;;5001398;28;20044;-74
2022/05/02 02:18:05;;;;;;;0.50;0.50;;;3.00;99.90;;;;;;5038160;28;20037;-74
2022/05/02 02:20:32;;;;;;;0.50;0.50;;;3.00;99.90;;;;;;5043796;28;20392;-74
2022/05/02 02:22:58;;;;;;;0.80;0.80;;;3.00;99.90;;;;;;5017866;28;20056;-72
2022/05/02 02:25:24;;;;;;;0.68;0.68;;;3.00;99.90;;;;;;5035244;28;20045;-72
2022/05/02 02:27:49;;;;;;;0.60;0.60;;;3.00;99.90;;;;;;5022256;28;20093;-72
2022/05/02 02:30:16;;;;;;;0.50;0.50;;;2.90;99.90;;;;;;5042895;28;20044;-72
2022/05/02 02:32:42;;;;;;;0.70;0.70;;;2.90;99.90;;;;;;5010921;28;20045;-74
2022/05/02 02:35:08;;;;;;;0.40;0.40;;;2.90;99.90;;;;;;5010593;28;20085;-74
2022/05/02 02:37:34;;;;;;;0.60;0.60;;;3.00;99.90;;;;;;5039844;28;20043;-74
2022/05/02 02:40:00;;;;;;;0.68;0.68;;;3.00;99.90;;;;;;5024820;28;20040;-74
2022/05/02 02:42:25;;;;;;;0.65;0.65;;;2.90;99.90;;;;;;5018744;28;20080;-74
2022/05/02 02:44:51;;;;;;;0.60;0.60;;;2.90;99.90;;;;;;5020956;28;20041;-74
2022/05/02 02:47:18;;;;;;;0.80;0.80;;;2.90;99.90;;;;;;5022206;28;20048;-74
2022/05/02 02:49:43;;;;;;;0.68;0.68;;;2.80;99.90;;;;;;5011175;28;20120;-74
2022/05/02 02:52:09;;;;;;;1.15;1.15;;;2.80;99.90;;;;;;5053519;28;20411;-74
2022/05/02 02:54:35;;;;;;;0.50;0.50;;;2.90;99.90;;;;;;5041060;28;20093;-74
2022/05/02 02:57:01;;;;;;;1.00;1.00;;;2.90;99.90;;;;;;5032522;28;20102;-74
2022/05/02 02:59:27;;;;;;;1.33;1.33;;;2.90;99.90;;;;;;5034251;28;20051;-74
2022/05/02 03:01:53;;;;;;;0.82;0.82;;;2.90;99.90;;;;;;5016199;28;20041;-72
2022/05/02 03:07:04;;;;;;;0.50;0.50;;;2.90;99.90;;;;;;5027165;28;20044;-72
2022/05/02 03:09:31;;;;;;;0.57;0.57;;;3.00;99.90;;;;;;5014412;28;20507;-72
2022/05/02 03:11:57;;;;;;;0.60;0.60;;;3.00;99.90;;;;;;5033143;28;20041;-72
2022/05/02 03:14:23;;;;;;;0.50;0.50;;;3.00;99.90;;;;;;5052646;28;20044;-72
2022/05/02 03:16:49;;;;;;;0.70;0.70;;;3.00;99.90;;;;;;5032451;28;20036;-72
2022/05/02 03:19:14;;;;;;;0.70;0.70;;;2.90;99.90;;;;;;5010451;28;20037;-73
2022/05/02 03:21:40;;;;;;;0.80;0.80;;;2.90;99.90;;;;;;5021112;28;20060;-73
2022/05/02 03:24:06;;;;;;;1.50;1.50;;;2.90;99.90;;;;;;5009738;28;20084;-73
2022/05/02 03:26:32;;;;;;;0.70;0.70;;;2.90;99.90;;;;;;4995541;28;20113;-73
2022/05/02 03:28:57;;;;;;;0.70;0.70;;;2.90;99.90;;;;;;5017025;28;20135;-73
2022/05/02 03:31:23;;;;;;;0.60;0.60;;;2.90;99.90;;;;;;5016204;28;20048;-73
2022/05/02 03:33:49;;;;;;;0.57;0.57;;;2.90;99.90;;;;;;5025977;28;20428;-73
2022/05/02 03:36:15;;;;;;;0.60;0.60;;;2.90;99.90;;;;;;5008761;28;20037;-73
2022/05/02 03:38:40;;;;;;;0.55;0.55;;;2.90;99.90;;;;;;5022584;28;20036;-73
2022/05/02 03:41:06;;;;;;;1.73;1.63;;;2.90;99.90;;;;;;5022452;28;20040;-73
2022/05/02 03:43:32;;;;;;;0.63;0.63;;;2.80;99.90;;;;;;5024500;28;20167;-73
2022/05/02 03:45:58;;;;;;;0.70;0.70;;;2.80;99.90;;;;;;5015810;28;20519;-73
2022/05/02 03:48:23;;;;;;;0.80;0.80;;;2.80;99.90;;;;;;5023743;28;20124;-73
2022/05/02 03:50:49;;;;;;;0.80;0.80;;;2.80;99.90;;;;;;5021184;28;20080;-73
2022/05/02 03:53:17;;;;;;;2.38;2.17;;;2.80;99.90;;;;;;5020670;28;20037;-73
2022/05/02 03:55:44;;;;;;;1.00;1.00;;;2.70;99.90;;;;;;5021598;28;20037;-73
2022/05/02 03:58:10;;;;;;;1.00;1.00;;;2.70;99.90;;;;;;5004869;28;20119;-73
2022/05/02 04:00:35;;;;;;;1.05;1.05;;;2.70;99.90;;;;;;5025615;28;20132;-73
2022/05/02 04:03:01;;;;;;;1.40;1.40;;;2.70;99.90;;;;;;5016460;28;20447;-73
2022/05/02 04:05:27;;;;;;;0.98;0.98;;;2.70;99.90;;;;;;5013770;28;20527;-73
2022/05/02 04:07:53;;;;;;;1.05;1.05;;;2.70;99.90;;;;;;5018549;28;20148;-73
2022/05/02 04:10:19;;;;;;;5.50;4.03;;;2.80;99.90;;;;;;5033324;28;20492;-73
2022/05/02 04:12:45;;;;;;;1.10;1.10;;;2.80;99.90;;;;;;5049256;28;20041;-73
2022/05/02 04:15:11;;;;;;;2.50;2.35;;;2.80;99.90;;;;;;5012059;28;20080;-73
2022/05/02 04:17:38;;;;;;;1.00;1.00;;;2.80;99.90;;;;;;5021164;28;20283;-73
2022/05/02 04:20:05;;;;;;;0.85;0.85;;;2.90;99.90;;;;;;5012946;28;20049;-73
2022/05/02 04:22:31;;;;;;;1.00;1.00;;;2.90;99.90;;;;;;5041224;28;20041;-73
2022/05/02 04:24:56;;;;;;;1.30;1.30;;;3.00;99.90;;;;;;5013131;28;20049;-73
2022/05/02 04:27:22;;;;;;;1.10;1.10;;;2.90;99.90;;;;;;5029408;28;20045;-73
2022/05/02 04:29:47;;;;;;;1.10;1.10;;;2.90;99.90;;;;;;5012593;28;20183;-73
2022/05/02 04:32:13;;;;;;;1.00;1.00;;;3.00;99.90;;;;;;5026661;28;20090;-73
2022/05/02 04:34:39;;;;;;;1.13;1.13;;;3.00;99.90;;;;;;5048559;28;20151;-73
2022/05/02 04:37:04;;;;;;;0.90;0.90;;;3.00;99.90;;;;;;5032353;28;20493;-73
2022/05/02 04:39:30;;;;;;;1.67;1.65;;;3.10;99.90;;;;;;5032190;28;20045;-73
2022/05/02 04:41:56;;;;;;;1.00;1.00;;;3.00;99.90;;;;;;5027627;28;20116;-73
2022/05/02 04:44:21;;;;;;;1.10;1.10;;;3.10;99.90;;;;;;5031372;28;20037;-73
2022/05/02 04:46:47;;;;;;;1.05;1.05;;;3.20;99.90;;;;;;5019177;28;20124;-73
2022/05/02 04:49:13;;;;;;;1.05;1.05;;;3.50;99.90;;;;;;4998750;28;20049;-73
2022/05/02 04:51:38;;;;;;;1.30;1.30;;;3.50;99.90;;;;;;5016223;28;20063;-73
2022/05/02 04:54:04;;;;;;;1.17;1.17;;;3.50;99.90;;;;;;5023343;28;20084;-73
2022/05/02 04:56:29;;;;;;;1.10;1.10;;;3.50;99.90;;;;;;5015777;28;20507;-73
2022/05/02 04:58:55;;;;;;;1.20;1.20;;;3.70;99.90;;;;;;5014397;28;20536;-73
2022/05/02 05:01:21;;;;;;;1.10;1.10;;;4.00;99.90;;;;;;5010821;28;20481;-73
2022/05/02 05:03:46;;;;;;;1.17;1.17;;;4.00;99.90;;;;;;5002405;28;20053;-73
2022/05/02 05:06:12;;;;;;;0.90;0.90;;;4.00;99.90;;;;;;5020285;28;20041;-74
2022/05/02 05:08:39;;;;;;;0.90;0.90;;;4.00;99.90;;;;;;5017104;28;20045;-74
2022/05/02 05:11:29;;;;;;;1.02;1.02;;;3.90;99.90;;;;;;5023246;28;20060;-74
2022/05/02 05:17:39;;;;;;;0.77;0.77;;;4.00;99.90;;;;;;5021497;28;20041;-74
2022/05/02 05:20:21;;;;;;;1.08;1.08;;;4.00;99.90;;;;;;5022878;28;20505;-74
2022/05/02 05:23:17;;;;;;;1.00;1.00;;;4.10;99.90;;;;;;5018405;28;20049;-74
2022/05/02 05:25:57;;;;;;;1.00;1.00;;;4.30;99.90;;;;;;5003005;28;20053;-74
2022/05/02 05:28:55;;;;;;;0.70;0.70;;;4.70;99.90;;;;;;5005298;28;20040;-74
2022/05/02 05:31:32;;;;;;;0.82;0.82;;;4.80;99.90;;;;;;5010606;28;20043;-74
2022/05/02 05:34:16;;;;;;;0.95;0.95;;;5.00;99.90;;;;;;4999290;28;20040;-74
2022/05/02 05:36:48;;;;;;;1.20;1.20;;;5.60;99.90;;;;;;5005127;28;20048;-74
2022/05/02 05:39:52;;;;;;;1.33;1.33;;;6.90;99.90;;;;;;5015735;28;20037;-74
2022/05/02 05:42:24;;;;;;;1.35;1.33;;;8.10;99.90;;;;;;5012974;28;20452;-74
2022/05/02 05:45:03;;;;;;;3.08;1.67;;;9.20;99.90;;;;;;5009629;28;20041;-74
2022/05/02 05:47:38;;;;;;;2.80;2.53;;;10.00;99.90;;;;;;5023720;28;20468;-74
2022/05/02 05:50:24;;;;;;;0.93;0.93;;;10.20;99.90;;;;;;5005365;28;20187;-74
2022/05/02 05:53:19;;;;;;;2.58;1.48;;;9.80;99.90;;;;;;5031022;28;20051;-74
2022/05/02 05:56:06;;;;;;;1.38;1.27;;;9.40;99.90;;;;;;5030796;28;20070;-74
2022/05/02 05:58:35;;;;;;;1.15;1.15;;;9.10;99.90;;;;;;5046999;28;20045;-74
2022/05/02 06:01:11;;;;;;;1.13;1.13;;;8.80;99.90;;;;;;5007803;28;20486;-74
2022/05/02 06:03:58;;;;;;;2.38;1.55;;;8.50;99.90;;;;;;5019240;28;20599;-74
2022/05/02 06:06:26;;;;;;;0.70;0.70;;;8.30;99.90;;;;;;5028595;28;20076;-74
2022/05/02 06:08:54;;;;;;;0.68;0.68;;;8.20;99.90;;;;;;5027669;28;20445;-74
2022/05/02 06:11:21;;;;;;;1.00;1.00;;;8.50;99.90;;;;;;5007137;28;20135;-74
2022/05/02 06:13:50;;;;;;;6.40;3.55;;;8.60;99.90;;;;;;5005435;28;20046;-74
2022/05/02 06:19:04;;;;;;;1.17;1.17;;;8.60;99.90;;;;;;5024940;28;20041;-75
2022/05/02 06:21:30;;;;;;;2.72;2.50;;;9.00;99.90;;;;;;4996088;28;20045;-75
2022/05/02 06:23:57;;;;;;;6.78;1.08;;;9.70;99.90;;;;;;5018252;28;20047;-75
2022/05/02 06:26:24;;;;;;;1.55;1.17;;;10.80;99.90;;;;;;5032506;28;20083;-75
2022/05/02 06:28:52;;;;;;;0.52;0.52;;;11.70;99.90;;;;;;5030443;28;20527;-75
2022/05/02 06:31:29;;;;;;;0.85;0.85;;;12.50;99.90;;;;;;5006294;28;20171;-75
2022/05/02 06:33:57;;;;;;;0.50;0.50;;;13.00;99.90;;;;;;5027211;28;20045;-74
2022/05/02 06:36:54;;;;;;;1.05;1.05;;;13.00;99.90;;;;;;5025026;28;20037;-74
2022/05/02 06:39:35;;;;;;;2.75;2.55;;;13.00;99.90;;;;;;5026486;28;20095;-73
2022/05/02 06:42:24;;;;;;;1.73;1.60;;;12.90;99.90;;;;;;5015834;28;20043;-73
2022/05/02 06:45:20;;;;;;;1.05;1.02;;;12.90;99.90;;;;;;5016418;28;20044;-74
2022/05/02 06:48:01;;;;;;;2.15;1.48;;;13.20;99.90;;;;;;5024387;28;20064;-74
2022/05/02 06:50:31;;;;;;;1.48;1.38;;;14.10;99.90;;;;;;5016484;28;20085;-74
2022/05/02 06:53:14;;;;;;;4.43;2.13;;;14.90;99.90;;;;;;5019474;28;20053;-74
2022/05/02 06:56:02;;;;;;;4.60;1.42;;;15.30;99.90;;;;;;5015494;28;20222;-74
2022/05/02 06:59:11;;;;;;;0.75;0.75;;;15.30;99.90;;;;;;5005317;28;20383;-74
2022/05/02 07:01:45;;;;;;;2.13;1.75;;;15.30;99.90;;;;;;5005159;28;20229;-74
2022/05/02 07:04:42;;;;;;;1.38;1.30;;;15.60;99.90;;;;;;5018631;28;20045;-74
2022/05/02 07:07:34;;;;;;;2.53;2.33;;;16.00;99.90;;;;;;4995418;28;20062;-74
2022/05/02 07:10:14;;;;;;;2.65;1.20;;;16.40;99.90;;;;;;5003267;28;20048;-75
2022/05/02 07:13:03;;;;;;;0.28;0.28;;;16.90;99.90;;;;;;5040220;28;20391;-74
2022/05/02 07:15:42;;;;;;;1.05;0.95;;;17.50;99.90;;;;;;4991082;28;20041;-74
2022/05/02 07:18:25;;;;;;;3.03;2.33;;;17.20;99.90;;;;;;5015230;28;20041;-74
2022/05/02 07:21:23;;;;;;;0.65;0.65;;;16.20;99.90;;;;;;5015532;28;20049;-74
2022/05/02 07:23:49;;;;;;;0.70;0.70;;;15.20;99.90;;;;;;4996168;28;20528;-74
2022/05/02 07:26:18;;;;;;;1.10;1.00;;;14.50;99.90;;;;;;5022791;28;20049;-74
2022/05/02 07:28:45;;;;;;;7.40;1.55;;;14.10;99.90;;;;;;5026720;28;20043;-74
2022/05/02 07:31:21;;;;;;;1.58;1.48;;;13.70;99.90;;;;;;4999466;28;20048;-74
2022/05/02 07:33:54;;;;;;;2.50;2.15;;;13.90;99.90;;;;;;5013768;28;20056;-74
2022/05/02 07:36:22;;;;;;;;;;;13.70;99.90;;;;;;5033885;28;20492;-74
2022/05/02 07:39:01;;;;;;;0.47;0.47;;;13.40;99.90;;;;;;5027560;28;19977;-74
2022/05/02 07:41:27;;;;;;;0.73;0.70;;;13.00;99.90;;;;;;5019295;28;20049;-74
2022/05/02 07:44:10;;;;;;;3.38;1.83;;;12.90;99.90;;;;;;5020215;28;20412;-73
2022/05/02 07:46:36;;;;;;;3.92;1.52;;;12.80;99.90;;;;;;5020591;28;20041;-73
2022/05/02 07:49:04;;;;;;;2.60;0.73;;;12.70;99.90;;;;;;5004283;28;20050;-74
2022/05/02 07:51:31;;;;;;;3.05;2.13;;;12.60;99.90;;;;;;5011866;28;20066;-73
2022/05/02 07:53:59;;;;;;;0.30;0.30;;;12.60;99.90;;;;;;5023573;28;20041;-74
2022/05/02 07:56:27;;;;;;;0.20;0.20;;;12.60;99.90;;;;;;5007941;28;20138;-74
2022/05/02 07:58:54;;;;;;;3.13;2.22;;;12.70;99.90;;;;;;5018750;28;20034;-74
2022/05/02 08:01:24;;;;;;;2.95;2.17;;;12.80;99.90;;;;;;5016960;28;20567;-73
2022/05/02 08:03:51;;;;;;;3.13;2.38;;;12.80;99.90;;;;;;5002490;28;20410;-74
2022/05/02 08:06:28;;;;;;;0.85;0.85;;;12.70;99.90;;;;;;5013256;28;20111;-74
2022/05/02 08:09:25;;;;;;;0.43;0.43;;;12.60;99.90;;;;;;5032209;28;20059;-74
2022/05/02 08:11:56;;;;;;;3.35;2.20;;;12.60;99.90;;;;;;5013221;28;20520;-74
2022/05/02 08:14:41;;;;;;;0.70;0.70;;;12.60;99.90;;;;;;5013384;28;20147;-74
2022/05/02 08:17:31;;;;;;;0.43;0.43;;;12.60;99.90;;;;;;4998882;28;20049;-74
2022/05/02 08:20:25;;;;;;;1.20;0.65;;;12.70;99.90;;;;;;5024136;28;20049;-74
2022/05/02 08:29:53;;;;;;;3.63;2.72;;;12.90;99.90;;;;;;4948704;28;20085;-74
2022/05/02 08:32:49;;;;;;;0.60;0.60;;;13.10;99.90;;;;;;4953458;28;20114;-74
2022/05/02 08:35:17;;;;;;;4.72;3.03;;;13.30;99.90;;;;;;4952750;28;20056;-73
2022/05/02 08:38:08;;;;;;;0.88;0.88;;;13.40;99.90;;;;;;4933401;29;20047;-74
2022/05/02 08:41:05;;;;;;;5.95;2.40;;;13.70;99.90;;;;;;4936587;28;20082;-74
2022/05/02 08:43:49;;;;;;;6.53;3.40;;;14.60;99.90;;;;;;4949721;29;20054;-74
2022/05/02 08:46:41;;;;;;;2.45;2.13;;;15.20;97.60;;;;;;4933547;29;20055;-74
2022/05/02 08:49:35;;;;;;;0.93;0.93;;;15.80;97.10;;;;;;4935845;29;20134;-75
2022/05/02 08:52:18;;;;;;;1.80;1.48;;;16.60;97.50;;;;;;4944379;28;20298;-75
2022/05/02 08:55:09;;;;;;;0.52;0.52;;;17.30;97.00;;;;;;4917840;29;20138;-74
2022/05/02 08:57:58;;;;;;;1.00;0.95;;;17.80;97.10;;;;;;4941213;28;20423;-74
2022/05/02 09:00:55;;;;;;;1.52;1.40;;;18.10;94.60;;;;;;4989704;28;20053;-75
2022/05/02 09:03:36;;;;;;;2.30;2.03;;;18.30;89.70;;;;;;5028830;28;20049;-74
2022/05/02 09:06:32;;;;;;;5.25;2.53;;;18.60;91.00;;;;;;5010577;28;20045;-74
2022/05/02 09:09:13;;;;;;;0.88;0.88;;;18.90;90.90;;;;;;5012363;28;20072;-75
2022/05/02 09:12:16;;;;;;;3.58;2.42;;;19.10;88.80;;;;;;5009386;28;20522;-75
2022/05/02 09:15:01;;;;;;;;;;;19.20;87.30;;;;;;5048631;28;20403;-74
2022/05/02 09:18:03;;;;;;;0.82;0.82;;;19.20;86.40;;;;;;5032060;28;19932;-75
2022/05/02 09:20:51;;;;;;;0.60;0.60;;;19.30;80.70;;;;;;5031377;28;20056;-74
2022/05/02 09:23:28;;;;;;;0.20;0.20;;;19.60;76.90;;;;;;5032166;28;20375;-75
2022/05/02 09:26:06;;;;;;;0.75;0.75;;;19.90;79.10;;;;;;5031957;28;20053;-74
2022/05/02 09:28:57;;;;;;;0.75;0.75;;;20.20;74.00;;;;;;4995806;28;20412;-74
2022/05/02 09:31:43;;;;;;;0.93;0.93;;;20.40;76.30;;;;;;5008549;28;20037;-74
2022/05/02 09:34:23;;;;;;;0.25;0.25;;;19.80;73.50;;;;;;5015691;28;20128;-75
2022/05/02 09:37:06;;;;;;;0.45;0.43;;;18.80;70.70;;;;;;5018625;28;20046;-74
2022/05/02 09:39:50;;;;;;;;;;;17.60;73.30;;;;;;5008871;28;20049;-74
2022/05/02 09:42:28;;;;;;;0.20;0.20;;;16.70;72.90;;;;;;5002097;28;19974;-74
2022/05/02 09:51:50;;;;;;;1.60;1.50;;;17.10;82.70;;;;;;5007959;28;20053;-75
2022/05/02 09:57:48;;;;;;;1.58;1.48;;;16.50;76.60;;;;;;5007608;28;20076;-73
2022/05/02 10:03:25;;;;;;;0.22;0.22;;;15.60;78.70;;;;;;5011236;28;20156;-74
2022/05/02 10:06:05;;;;;;;0.20;0.20;;;16.20;79.70;;;;;;5003328;28;20041;-74
2022/05/02 10:08:52;;;;;;;1.15;0.85;;;16.80;78.80;;;;;;4992043;28;20539;-74
2022/05/02 10:11:34;;;;;;;0.20;0.20;;;17.40;80.80;;;;;;4982698;28;20377;-74
2022/05/02 10:14:34;;;;;;;0.40;0.40;;;17.80;77.30;;;;;;5001550;28;20068;-74
2022/05/02 10:17:11;;;;;;;3.53;1.35;;;18.20;74.80;;;;;;5008770;28;20396;-74
2022/05/02 10:19:54;;;;;;;0.65;0.65;;;18.70;74.90;;;;;;4990537;28;20441;-74
2022/05/02 10:22:29;;;;;;;;;;;19.00;72.80;;;;;;5009426;28;20137;-74
2022/05/02 10:25:33;;;;;;;1.85;1.75;;;19.10;73.40;;;;;;5009791;28;19921;-74
2022/05/02 10:28:23;;;;;;;0.50;0.50;;;19.20;72.40;;;;;;4992075;28;20491;-74
2022/05/02 10:30:50;;;;;;;2.00;1.10;;;19.20;69.80;;;;;;5006671;28;20045;-74
2022/05/02 10:33:35;;;;;;;2.83;1.88;;;19.30;70.70;;;;;;5012331;28;20045;-74
2022/05/02 10:36:06;;;;;;;2.53;2.17;;;19.20;66.60;;;;;;4999745;28;20046;-73
2022/05/02 10:38:34;;;;;;;2.05;1.90;;;19.10;65.30;;;;;;5006980;28;20377;-74
2022/05/02 10:41:08;;;;;;;0.88;0.88;;;19.00;65.20;;;;;;5002749;28;20055;-74
2022/05/02 10:43:36;;;;;;;1.73;1.63;;;19.10;65.20;;;;;;5036579;28;20069;-74
2022/05/02 10:46:02;;;;;;;2.63;1.60;;;19.20;67.30;;;;;;5000175;28;20056;-73
2022/05/02 10:48:44;;;;;;;0.70;0.70;;;19.10;65.70;;;;;;4994748;28;20045;-74
2022/05/02 10:51:17;;;;;;;2.33;2.00;;;19.20;62.90;;;;;;4998593;28;20120;-74
2022/05/02 10:53:46;;;;;;;2.60;1.73;;;19.40;63.20;;;;;;5007439;28;20041;-74
2022/05/02 10:56:32;;;;;;;0.22;0.22;;;19.30;64.20;;;;;;5008762;28;20041;-74
2022/05/02 10:59:02;;;;;;;1.65;1.48;;;19.40;64.50;;;;;;5007024;28;20053;-73
2022/05/02 11:01:46;;;;;;;1.45;1.35;;;19.40;63.20;;;;;;4989696;28;20034;-74
2022/05/02 11:04:35;;;;;;;1.08;1.00;;;19.30;63.50;;;;;;5009857;28;20049;-73
2022/05/02 11:07:26;;;;;;;0.68;0.68;;;19.30;62.40;;;;;;4997389;28;20099;-74
2022/05/02 11:09:58;;;;;;;0.20;0.20;;;19.30;62.20;;;;;;5008753;28;20049;-74
2022/05/02 11:12:31;;;;;;;0.63;0.63;;;19.50;61.40;;;;;;5013504;28;20129;-74
2022/05/02 11:15:21;;;;;;;1.88;1.42;;;19.60;62.90;;;;;;5008033;28;20045;-74
2022/05/02 11:21:29;;;;;;;0.25;0.25;;;19.60;60.60;;;;;;5013105;28;20041;-73
2022/05/02 11:24:23;;;;;;;1.35;1.00;;;19.40;58.00;;;;;;5006094;28;20097;-73
2022/05/02 11:27:13;;;;;;;2.60;2.22;;;19.40;61.00;;;;;;5021837;28;20060;-73
2022/05/02 11:30:00;;;;;;;1.23;0.75;;;19.60;58.90;;;;;;4989565;28;20056;-73
2022/05/02 11:32:30;;;;;;;1.80;1.60;;;19.70;60.60;;;;;;4984302;28;20056;-74
2022/05/02 11:35:04;;;;;;;1.77;0.90;;;19.90;59.40;;;;;;4986425;28;20068;-73
2022/05/02 11:37:53;;;;;;;2.60;1.70;;;19.50;57.90;;;;;;5004875;28;20048;-73
2022/05/02 11:40:26;;;;;;;1.05;1.00;;;19.30;59.10;;;;;;5013147;28;20048;-72
2022/05/02 11:42:53;;;;;;;0.88;0.82;;;19.20;58.80;;;;;;5011789;28;20041;-72
2022/05/02 11:45:38;;;;;;;4.93;2.10;;;19.30;58.90;;;;;;5006250;28;20463;-73
2022/05/02 11:48:27;;;;;;;1.77;1.55;;;19.20;55.10;;;;;;5002328;28;20048;-72
2022/05/02 11:50:56;;;;;;;2.33;1.38;;;19.00;56.90;;;;;;4983867;28;20060;-72
2022/05/02 11:53:28;;;;;;;1.92;1.33;;;19.10;55.40;;;;;;5007860;28;20046;-72
2022/05/02 11:55:55;;;;;;;0.30;0.30;;;19.00;55.00;;;;;;4999314;28;20050;-72
2022/05/02 11:58:24;;;;;;;4.15;1.40;;;19.10;56.80;;;;;;4987874;28;20029;-72
2022/05/02 12:01:00;;;;;;;0.52;0.52;;;19.50;59.40;;;;;;4986575;28;21866;-73
2022/05/02 12:03:26;;;;;;;0.63;0.50;;;19.80;58.60;;;;;;4988786;28;20048;-73
2022/05/02 12:05:55;;;;;;;1.00;0.90;;;19.90;58.00;;;;;;5011092;28;20038;-73
2022/05/02 12:08:44;;;;;;;1.17;1.02;;;19.50;56.70;;;;;;5002890;28;20038;-73
2022/05/02 12:11:12;;;;;;;0.75;0.75;;;19.00;57.50;;;;;;4984790;28;20116;-73
2022/05/02 12:13:47;;;;;;;0.47;0.47;;;19.00;59.70;;;;;;4998318;28;20068;-73
2022/05/02 12:16:16;;;;;;;2.20;1.42;;;19.20;58.60;;;;;;4980771;28;20047;-72
2022/05/02 12:18:43;;;;;;;2.45;2.17;;;19.40;58.40;;;;;;5009053;28;20044;-72
2022/05/02 12:21:38;;;;;;;0.30;0.30;;;19.40;56.10;;;;;;4986961;28;20184;-72
2022/05/02 12:24:05;;;;;;;3.33;3.03;;;19.20;56.80;;;;;;5018456;28;20405;-72
2022/05/02 12:26:33;;;;;;;1.88;1.17;;;19.20;56.60;;;;;;5005738;28;20492;-73
2022/05/02 12:29:04;;;;;;;0.55;0.55;;;19.30;59.10;;;;;;5011792;28;20124;-73
2022/05/02 12:31:31;;;;;;;0.57;0.57;;;19.50;56.90;;;;;;4994710;28;20041;-72
2022/05/02 12:34:03;;;;;;;0.80;0.80;;;19.50;57.80;;;;;;4988022;28;20041;-72
2022/05/02 12:36:49;;;;;;;1.92;1.48;;;19.60;56.20;;;;;;5030345;28;20037;-72
2022/05/02 12:39:26;;;;;;;0.60;0.60;;;19.60;57.10;;;;;;4990577;28;20397;-73
2022/05/02 12:42:16;;;;;;;0.70;0.70;;;19.80;57.50;;;;;;5004097;28;20432;-73
2022/05/02 12:44:47;;;;;;;0.68;0.65;;;20.00;61.70;;;;;;4992316;28;20072;-73
2022/05/02 12:47:24;;;;;;;1.80;1.42;;;20.10;60.60;;;;;;4991242;28;20474;-73
2022/05/02 12:50:17;;;;;;;1.45;0.30;;;20.00;59.90;;;;;;5007384;28;20103;-73
2022/05/02 12:52:51;;;;;;;0.75;0.75;;;19.80;60.00;;;;;;5021363;28;20051;-73
2022/05/02 12:55:19;;;;;;;0.73;0.70;;;19.60;61.60;;;;;;5019951;28;20396;-72
2022/05/02 13:00:40;;;;;;;0.95;0.90;;;19.60;62.20;;;;;;5018910;28;20050;-73
2022/05/02 13:03:17;;;;;;;2.85;2.15;;;19.70;61.60;;;;;;5031471;28;20162;-72
2022/05/02 13:05:46;;;;;;;3.65;2.38;;;20.00;62.10;;;;;;5013338;28;20099;-72
2022/05/02 13:08:12;;;;;;;1.67;1.23;;;20.00;60.40;;;;;;5010650;28;20045;-73
2022/05/02 13:10:40;;;;;;;1.13;0.57;;;19.90;61.00;;;;;;5023955;28;20045;-73
2022/05/02 13:13:15;;;;;;;1.20;1.13;;;19.90;61.10;;;;;;5026444;28;20083;-72
2022/05/02 13:15:50;;;;;;;0.98;0.75;;;19.70;60.40;;;;;;5029492;28;20143;-73
2022/05/02 13:18:16;;;;;;;1.05;0.95;;;19.40;61.30;;;;;;5031917;28;20723;-72
2022/05/02 13:20:48;;;;;;;0.43;0.43;;;18.90;60.80;;;;;;5008744;28;20082;-72
2022/05/02 13:23:14;;;;;;;0.30;0.30;;;18.70;61.70;;;;;;5043666;28;20056;-73
2022/05/02 13:26:07;;;;;;;0.93;0.80;;;18.90;61.70;;;;;;5035778;28;20799;-72
2022/05/02 13:28:41;;;;;;;2.55;1.67;;;19.10;65.30;;;;;;5024866;28;20079;-72
2022/05/02 13:31:10;;;;;;;1.35;1.10;;;19.50;64.40;;;;;;5004736;28;20119;-72
2022/05/02 13:33:39;;;;;;;1.42;0.60;;;19.80;64.90;;;;;;5034726;28;20071;-73
2022/05/02 13:36:07;;;;;;;1.90;1.73;;;20.00;62.00;;;;;;5030614;28;20041;-73
2022/05/02 13:39:02;;;;;;;0.90;0.88;;;20.20;61.30;;;;;;5007048;28;20041;-73
2022/05/02 13:41:56;;;;;;;0.32;0.32;;;20.30;62.50;;;;;;5007447;28;20055;-73
2022/05/02 13:44:29;;;;;;;0.38;0.38;;;20.30;62.60;;;;;;5017400;28;20406;-72
2022/05/02 13:47:11;;;;;;;;;;;19.90;61.40;;;;;;5015807;28;20049;-72
2022/05/02 13:49:41;;;;;;;0.10;0.10;;;19.20;61.30;;;;;;5011920;28;19932;-72
2022/05/02 13:52:33;;;;;;;0.22;0.20;;;18.60;63.20;;;;;;4981532;28;20138;-73
2022/05/02 13:55:06;;;;;;;0.75;0.75;;;18.60;64.30;;;;;;4986791;28;20061;-72
2022/05/02 13:57:42;;;;;;;4.43;2.22;;;18.70;64.80;;;;;;5008320;28;20041;-72
2022/05/02 14:03:10;;;;;;;0.60;0.57;;;19.00;63.70;;;;;;5003600;28;20041;-72
2022/05/02 14:05:49;;;;;;;2.95;2.72;;;19.10;63.10;;;;;;5005491;28;20509;-72
2022/05/02 14:08:18;;;;;;;1.00;0.98;;;19.00;64.20;;;;;;5004711;28;20063;-72